sensor_id;sensor_type;location;lat;lon;timestamp;P1;durP1;ratioP1;P2;durP2;ratioP2
49910;SDS011;35803;53.096;5.844;2023-01-26T09:50:20;6.22;;;1.33;;
49910;SDS011;35803;53.096;5.844;2023-01-26T09:53:05;12.20;;;1.95;;
49910;SDS011;35803;53.096;5.844;2023-01-26T09:55:36;13.25;;;1.55;;
49910;SDS011;35803;53.096;5.844;2023-01-26T09:58:05;10.18;;;1.70;;
49910;SDS011;35803;53.096;5.844;2023-01-26T10:00:46;7.78;;;1.40;;
49910;SDS011;35803;53.096;5.844;2023-01-26T10:08:25;8.77;;;1.50;;
49910;SDS011;35803;53.096;5.844;2023-01-26T10:11:35;11.10;;;2.00;;
49910;SDS011;35803;53.096;5.844;2023-01-26T10:14:06;7.65;;;1.20;;
49910;SDS011;35803;53.096;5.844;2023-01-26T10:16:39;20.70;;;2.10;;
49910;SDS011;35803;53.096;5.844;2023-01-26T10:19:16;5.43;;;1.70;;
49910;SDS011;35803;53.096;5.844;2023-01-26T10:21:55;8.27;;;1.50;;
49910;SDS011;35803;53.096;5.844;2023-01-26T10:24:23;10.60;;;1.65;;
49910;SDS011;35803;53.096;5.844;2023-01-26T10:26:49;13.70;;;2.03;;
49910;SDS011;35803;53.096;5.844;2023-01-26T10:29:17;9.15;;;1.50;;
49910;SDS011;35803;53.096;5.844;2023-01-26T10:31:43;12.02;;;1.83;;
49910;SDS011;35803;53.096;5.844;2023-01-26T10:34:13;8.60;;;1.67;;
49910;SDS011;35803;53.096;5.844;2023-01-26T10:36:42;5.07;;;1.40;;
49910;SDS011;35803;53.096;5.844;2023-01-26T10:39:13;7.35;;;1.20;;
49910;SDS011;35803;53.096;5.844;2023-01-26T10:41:54;9.15;;;1.27;;
49910;SDS011;35803;53.096;5.844;2023-01-26T10:44:35;8.20;;;1.60;;
49910;SDS011;35803;53.096;5.844;2023-01-26T10:47:04;8.93;;;1.33;;
49910;SDS011;35803;53.096;5.844;2023-01-26T10:49:40;7.10;;;1.33;;
49910;SDS011;35803;53.096;5.844;2023-01-26T10:54:32;12.60;;;1.50;;
49910;SDS011;35803;53.096;5.844;2023-01-26T10:57:02;9.52;;;1.70;;
49910;SDS011;35803;53.096;5.844;2023-01-26T11:01:58;8.73;;;1.02;;
49910;SDS011;35803;53.096;5.844;2023-01-26T11:07:35;4.72;;;1.25;;
49910;SDS011;35803;53.096;5.844;2023-01-26T11:12:50;11.10;;;1.10;;
49910;SDS011;35803;53.096;5.844;2023-01-26T11:15:32;5.57;;;1.92;;
49910;SDS011;35803;53.096;5.844;2023-01-26T11:18:01;4.95;;;1.50;;
49910;SDS011;35803;53.096;5.844;2023-01-26T11:25:44;6.88;;;1.63;;
49910;SDS011;35803;53.096;5.844;2023-01-26T11:44:45;10.93;;;1.35;;
49910;SDS011;35803;53.096;5.844;2023-01-26T11:55:48;8.93;;;1.08;;
49910;SDS011;35803;53.096;5.844;2023-01-26T12:00:59;4.75;;;0.98;;
49910;SDS011;35803;53.096;5.844;2023-01-26T12:05:56;3.78;;;0.70;;
49910;SDS011;35803;53.096;5.844;2023-01-26T12:11:16;5.45;;;1.27;;
49910;SDS011;35803;53.096;5.844;2023-01-26T12:16:42;1.60;;;0.70;;
49910;SDS011;35803;53.096;5.844;2023-01-26T12:19:27;9.07;;;1.30;;
49910;SDS011;35803;53.096;5.844;2023-01-26T12:22:05;2.83;;;1.00;;
49910;SDS011;35803;53.096;5.844;2023-01-26T12:24:39;3.13;;;1.13;;
49910;SDS011;35803;53.096;5.844;2023-01-26T12:27:11;3.65;;;0.85;;
49910;SDS011;35803;53.096;5.844;2023-01-26T12:29:43;3.17;;;1.00;;
49910;SDS011;35803;53.096;5.844;2023-01-26T12:32:15;2.30;;;1.00;;
49910;SDS011;35803;53.096;5.844;2023-01-26T12:34:41;8.82;;;1.05;;
49910;SDS011;35803;53.096;5.844;2023-01-26T12:46:04;6.38;;;0.90;;
49910;SDS011;35803;53.096;5.844;2023-01-26T12:51:08;3.97;;;0.90;;
49910;SDS011;35803;53.096;5.844;2023-01-26T12:53:44;4.35;;;1.15;;
49910;SDS011;35803;53.096;5.844;2023-01-26T12:56:25;1.60;;;0.70;;
49910;SDS011;35803;53.096;5.844;2023-01-26T12:59:05;6.55;;;1.08;;
49910;SDS011;35803;53.096;5.844;2023-01-26T13:01:39;4.55;;;0.90;;
49910;SDS011;35803;53.096;5.844;2023-01-26T13:04:10;3.45;;;0.98;;
49910;SDS011;35803;53.096;5.844;2023-01-26T13:06:37;4.88;;;0.88;;
49910;SDS011;35803;53.096;5.844;2023-01-26T13:09:17;5.50;;;1.90;;
49910;SDS011;35803;53.096;5.844;2023-01-26T13:11:48;7.95;;;1.55;;
49910;SDS011;35803;53.096;5.844;2023-01-26T13:22:51;6.35;;;1.27;;
49910;SDS011;35803;53.096;5.844;2023-01-26T13:24:55;4.07;;;1.08;;
49910;SDS011;35803;53.096;5.844;2023-01-26T13:27:55;6.63;;;1.75;;
49910;SDS011;35803;53.096;5.844;2023-01-26T13:32:51;8.18;;;1.35;;
49910;SDS011;35803;53.096;5.844;2023-01-26T13:35:28;6.78;;;1.08;;
49910;SDS011;35803;53.096;5.844;2023-01-26T13:40:36;5.07;;;1.20;;
49910;SDS011;35803;53.096;5.844;2023-01-26T13:48:49;5.07;;;1.10;;
49910;SDS011;35803;53.096;5.844;2023-01-26T13:59:12;4.72;;;1.00;;
49910;SDS011;35803;53.096;5.844;2023-01-26T14:04:06;3.75;;;1.02;;
49910;SDS011;35803;53.096;5.844;2023-01-26T14:06:34;6.25;;;1.08;;
49910;SDS011;35803;53.096;5.844;2023-01-26T14:09:01;6.63;;;1.13;;
49910;SDS011;35803;53.096;5.844;2023-01-26T14:11:28;3.15;;;0.95;;
49910;SDS011;35803;53.096;5.844;2023-01-26T14:13:56;7.53;;;1.60;;
49910;SDS011;35803;53.096;5.844;2023-01-26T14:19:04;3.83;;;1.23;;
49910;SDS011;35803;53.096;5.844;2023-01-26T14:21:30;5.90;;;1.10;;
49910;SDS011;35803;53.096;5.844;2023-01-26T14:23:57;5.95;;;1.02;;
49910;SDS011;35803;53.096;5.844;2023-01-26T14:28:48;7.88;;;2.20;;
49910;SDS011;35803;53.096;5.844;2023-01-26T14:31:15;5.50;;;1.30;;
49910;SDS011;35803;53.096;5.844;2023-01-26T14:33:44;6.57;;;1.15;;
49910;SDS011;35803;53.096;5.844;2023-01-26T14:36:17;4.75;;;1.35;;
49910;SDS011;35803;53.096;5.844;2023-01-26T14:38:45;5.72;;;1.00;;
49910;SDS011;35803;53.096;5.844;2023-01-26T14:41:16;8.40;;;1.23;;
49910;SDS011;35803;53.096;5.844;2023-01-26T14:43:42;5.03;;;1.35;;
49910;SDS011;35803;53.096;5.844;2023-01-26T14:46:08;4.78;;;1.30;;
49910;SDS011;35803;53.096;5.844;2023-01-26T14:48:40;5.60;;;1.60;;
49910;SDS011;35803;53.096;5.844;2023-01-26T14:51:09;7.70;;;1.10;;
49910;SDS011;35803;53.096;5.844;2023-01-26T14:53:47;6.13;;;1.33;;
49910;SDS011;35803;53.096;5.844;2023-01-26T14:56:18;5.80;;;1.30;;
49910;SDS011;35803;53.096;5.844;2023-01-26T14:58:47;6.38;;;1.00;;
49910;SDS011;35803;53.096;5.844;2023-01-26T15:01:18;8.68;;;1.88;;
49910;SDS011;35803;53.096;5.844;2023-01-26T15:03:46;9.60;;;1.73;;
49910;SDS011;35803;53.096;5.844;2023-01-26T15:06:16;10.13;;;1.27;;
49910;SDS011;35803;53.096;5.844;2023-01-26T15:08:57;11.23;;;1.40;;
49910;SDS011;35803;53.096;5.844;2023-01-26T15:11:31;8.27;;;1.50;;
49910;SDS011;35803;53.096;5.844;2023-01-26T15:16:57;10.40;;;1.50;;
49910;SDS011;35803;53.096;5.844;2023-01-26T15:19:23;5.85;;;1.15;;
49910;SDS011;35803;53.096;5.844;2023-01-26T15:21:50;4.97;;;1.17;;
49910;SDS011;35803;53.096;5.844;2023-01-26T15:24:16;7.63;;;1.33;;
49910;SDS011;35803;53.096;5.844;2023-01-26T15:26:41;5.45;;;1.30;;
49910;SDS011;35803;53.096;5.844;2023-01-26T15:29:28;8.82;;;1.67;;
49910;SDS011;35803;53.096;5.844;2023-01-26T15:31:56;5.05;;;1.00;;
49910;SDS011;35803;53.096;5.844;2023-01-26T15:34:29;3.95;;;1.08;;
49910;SDS011;35803;53.096;5.844;2023-01-26T15:36:57;2.78;;;1.27;;
49910;SDS011;35803;53.096;5.844;2023-01-26T15:39:23;5.28;;;1.00;;
49910;SDS011;35803;53.096;5.844;2023-01-26T15:42:09;6.10;;;1.23;;
49910;SDS011;35803;53.096;5.844;2023-01-26T15:44:39;6.85;;;1.58;;
49910;SDS011;35803;53.096;5.844;2023-01-26T15:47:08;7.10;;;1.15;;
49910;SDS011;35803;53.096;5.844;2023-01-26T15:49:35;12.07;;;1.73;;
49910;SDS011;35803;53.096;5.844;2023-01-26T15:52:01;7.38;;;1.70;;
49910;SDS011;35803;53.096;5.844;2023-01-26T15:54:27;4.30;;;1.13;;
49910;SDS011;35803;53.096;5.844;2023-01-26T15:56:52;2.53;;;1.05;;
49910;SDS011;35803;53.096;5.844;2023-01-26T15:59:18;8.45;;;1.55;;
49910;SDS011;35803;53.096;5.844;2023-01-26T16:01:43;9.75;;;1.35;;
49910;SDS011;35803;53.096;5.844;2023-01-26T16:04:12;5.72;;;1.17;;
49910;SDS011;35803;53.096;5.844;2023-01-26T16:06:38;7.70;;;1.35;;
49910;SDS011;35803;53.096;5.844;2023-01-26T16:09:03;5.07;;;1.48;;
49910;SDS011;35803;53.096;5.844;2023-01-26T16:11:33;8.30;;;1.48;;
49910;SDS011;35803;53.096;5.844;2023-01-26T16:14:00;5.13;;;1.15;;
49910;SDS011;35803;53.096;5.844;2023-01-26T16:16:27;4.95;;;1.30;;
49910;SDS011;35803;53.096;5.844;2023-01-26T16:18:54;5.63;;;1.15;;
49910;SDS011;35803;53.096;5.844;2023-01-26T16:21:21;5.50;;;1.42;;
49910;SDS011;35803;53.096;5.844;2023-01-26T16:23:47;9.13;;;1.45;;
49910;SDS011;35803;53.096;5.844;2023-01-26T16:26:14;8.43;;;1.60;;
49910;SDS011;35803;53.096;5.844;2023-01-26T16:28:40;5.40;;;1.33;;
49910;SDS011;35803;53.096;5.844;2023-01-26T16:33:49;7.05;;;1.40;;
49910;SDS011;35803;53.096;5.844;2023-01-26T16:36:15;9.35;;;1.73;;
49910;SDS011;35803;53.096;5.844;2023-01-26T16:38:42;10.57;;;1.75;;
49910;SDS011;35803;53.096;5.844;2023-01-26T16:41:30;5.55;;;1.65;;
49910;SDS011;35803;53.096;5.844;2023-01-26T16:43:56;8.93;;;1.63;;
49910;SDS011;35803;53.096;5.844;2023-01-26T16:46:23;6.75;;;1.58;;
49910;SDS011;35803;53.096;5.844;2023-01-26T16:48:49;4.35;;;1.45;;
49910;SDS011;35803;53.096;5.844;2023-01-26T16:51:16;8.80;;;1.98;;
49910;SDS011;35803;53.096;5.844;2023-01-26T16:53:42;7.97;;;2.17;;
49910;SDS011;35803;53.096;5.844;2023-01-26T16:56:08;7.63;;;1.83;;
49910;SDS011;35803;53.096;5.844;2023-01-26T16:58:35;10.30;;;2.15;;
49910;SDS011;35803;53.096;5.844;2023-01-26T17:01:01;6.40;;;2.10;;
49910;SDS011;35803;53.096;5.844;2023-01-26T17:03:27;8.77;;;2.22;;
49910;SDS011;35803;53.096;5.844;2023-01-26T17:05:53;9.48;;;1.60;;
49910;SDS011;35803;53.096;5.844;2023-01-26T17:08:20;4.32;;;1.30;;
49910;SDS011;35803;53.096;5.844;2023-01-26T17:10:45;5.38;;;1.30;;
49910;SDS011;35803;53.096;5.844;2023-01-26T17:13:12;7.30;;;1.80;;
49910;SDS011;35803;53.096;5.844;2023-01-26T17:15:39;6.45;;;1.23;;
49910;SDS011;35803;53.096;5.844;2023-01-26T17:18:04;9.00;;;1.70;;
49910;SDS011;35803;53.096;5.844;2023-01-26T17:20:30;4.68;;;1.40;;
49910;SDS011;35803;53.096;5.844;2023-01-26T17:22:55;7.75;;;1.52;;
49910;SDS011;35803;53.096;5.844;2023-01-26T17:25:21;5.38;;;1.27;;
49910;SDS011;35803;53.096;5.844;2023-01-26T17:27:47;7.70;;;1.20;;
49910;SDS011;35803;53.096;5.844;2023-01-26T17:30:14;9.32;;;1.80;;
49910;SDS011;35803;53.096;5.844;2023-01-26T17:32:43;6.03;;;1.38;;
49910;SDS011;35803;53.096;5.844;2023-01-26T17:35:08;6.68;;;1.42;;
49910;SDS011;35803;53.096;5.844;2023-01-26T17:37:34;7.88;;;1.77;;
49910;SDS011;35803;53.096;5.844;2023-01-26T17:40:01;9.65;;;2.00;;
49910;SDS011;35803;53.096;5.844;2023-01-26T17:42:27;8.13;;;1.75;;
49910;SDS011;35803;53.096;5.844;2023-01-26T17:44:54;10.48;;;1.67;;
49910;SDS011;35803;53.096;5.844;2023-01-26T17:47:22;7.88;;;1.65;;
49910;SDS011;35803;53.096;5.844;2023-01-26T17:49:47;9.38;;;1.98;;
49910;SDS011;35803;53.096;5.844;2023-01-26T17:52:13;9.18;;;1.98;;
49910;SDS011;35803;53.096;5.844;2023-01-26T17:54:39;5.68;;;1.50;;
49910;SDS011;35803;53.096;5.844;2023-01-26T17:57:04;6.82;;;1.52;;
49910;SDS011;35803;53.096;5.844;2023-01-26T17:59:30;8.80;;;2.03;;
49910;SDS011;35803;53.096;5.844;2023-01-26T18:01:56;6.03;;;1.95;;
49910;SDS011;35803;53.096;5.844;2023-01-26T18:04:21;9.13;;;1.52;;
49910;SDS011;35803;53.096;5.844;2023-01-26T18:06:47;9.45;;;1.58;;
49910;SDS011;35803;53.096;5.844;2023-01-26T18:09:12;5.05;;;1.35;;
49910;SDS011;35803;53.096;5.844;2023-01-26T18:11:38;7.20;;;1.55;;
49910;SDS011;35803;53.096;5.844;2023-01-26T18:14:04;5.55;;;1.30;;
49910;SDS011;35803;53.096;5.844;2023-01-26T18:16:30;16.42;;;1.77;;
49910;SDS011;35803;53.096;5.844;2023-01-26T18:18:56;8.50;;;1.60;;
49910;SDS011;35803;53.096;5.844;2023-01-26T18:21:23;5.78;;;2.10;;
49910;SDS011;35803;53.096;5.844;2023-01-26T18:23:52;10.18;;;1.80;;
49910;SDS011;35803;53.096;5.844;2023-01-26T18:26:19;7.03;;;1.65;;
49910;SDS011;35803;53.096;5.844;2023-01-26T18:28:46;12.65;;;2.22;;
49910;SDS011;35803;53.096;5.844;2023-01-26T18:31:16;12.75;;;1.77;;
49910;SDS011;35803;53.096;5.844;2023-01-26T18:33:43;9.88;;;2.17;;
49910;SDS011;35803;53.096;5.844;2023-01-26T18:36:10;8.80;;;2.67;;
49910;SDS011;35803;53.096;5.844;2023-01-26T18:38:39;7.90;;;1.77;;
49910;SDS011;35803;53.096;5.844;2023-01-26T18:41:13;5.00;;;1.70;;
49910;SDS011;35803;53.096;5.844;2023-01-26T18:43:40;12.40;;;1.80;;
49910;SDS011;35803;53.096;5.844;2023-01-26T18:46:06;7.25;;;1.95;;
49910;SDS011;35803;53.096;5.844;2023-01-26T18:48:32;5.97;;;2.03;;
49910;SDS011;35803;53.096;5.844;2023-01-26T18:50:59;6.32;;;1.15;;
49910;SDS011;35803;53.096;5.844;2023-01-26T18:53:25;9.43;;;2.15;;
49910;SDS011;35803;53.096;5.844;2023-01-26T18:55:51;8.50;;;1.73;;
49910;SDS011;35803;53.096;5.844;2023-01-26T18:58:22;10.13;;;2.10;;
49910;SDS011;35803;53.096;5.844;2023-01-26T19:00:48;7.38;;;1.75;;
49910;SDS011;35803;53.096;5.844;2023-01-26T19:03:14;8.50;;;1.50;;
49910;SDS011;35803;53.096;5.844;2023-01-26T19:05:41;6.38;;;1.45;;
49910;SDS011;35803;53.096;5.844;2023-01-26T19:08:07;6.88;;;1.42;;
49910;SDS011;35803;53.096;5.844;2023-01-26T19:10:35;6.63;;;1.33;;
49910;SDS011;35803;53.096;5.844;2023-01-26T19:13:03;7.35;;;1.30;;
49910;SDS011;35803;53.096;5.844;2023-01-26T19:15:32;16.65;;;1.88;;
49910;SDS011;35803;53.096;5.844;2023-01-26T19:17:58;7.43;;;1.40;;
49910;SDS011;35803;53.096;5.844;2023-01-26T19:20:24;8.63;;;2.10;;
49910;SDS011;35803;53.096;5.844;2023-01-26T19:22:50;4.63;;;1.42;;
49910;SDS011;35803;53.096;5.844;2023-01-26T19:25:23;10.30;;;1.52;;
49910;SDS011;35803;53.096;5.844;2023-01-26T19:27:49;5.20;;;0.98;;
49910;SDS011;35803;53.096;5.844;2023-01-26T19:30:15;6.57;;;1.55;;
49910;SDS011;35803;53.096;5.844;2023-01-26T19:32:41;4.22;;;1.52;;
49910;SDS011;35803;53.096;5.844;2023-01-26T19:35:27;7.28;;;1.13;;
49910;SDS011;35803;53.096;5.844;2023-01-26T19:37:53;6.40;;;1.40;;
49910;SDS011;35803;53.096;5.844;2023-01-26T19:40:19;5.78;;;1.50;;
49910;SDS011;35803;53.096;5.844;2023-01-26T19:42:44;8.32;;;1.60;;
49910;SDS011;35803;53.096;5.844;2023-01-26T19:45:10;5.65;;;2.00;;
49910;SDS011;35803;53.096;5.844;2023-01-26T19:47:35;10.60;;;1.50;;
49910;SDS011;35803;53.096;5.844;2023-01-26T19:50:01;12.13;;;1.77;;
49910;SDS011;35803;53.096;5.844;2023-01-26T19:52:27;3.20;;;1.40;;
49910;SDS011;35803;53.096;5.844;2023-01-26T19:54:53;7.15;;;1.52;;
49910;SDS011;35803;53.096;5.844;2023-01-26T19:57:19;11.00;;;1.48;;
49910;SDS011;35803;53.096;5.844;2023-01-26T19:59:44;8.95;;;2.08;;
49910;SDS011;35803;53.096;5.844;2023-01-26T20:02:10;4.28;;;1.08;;
49910;SDS011;35803;53.096;5.844;2023-01-26T20:04:35;11.90;;;1.77;;
49910;SDS011;35803;53.096;5.844;2023-01-26T20:07:01;9.15;;;1.90;;
49910;SDS011;35803;53.096;5.844;2023-01-26T20:09:32;10.00;;;1.75;;
49910;SDS011;35803;53.096;5.844;2023-01-26T20:11:59;10.07;;;1.85;;
49910;SDS011;35803;53.096;5.844;2023-01-26T20:14:24;8.27;;;1.65;;
49910;SDS011;35803;53.096;5.844;2023-01-26T20:16:50;6.28;;;1.30;;
49910;SDS011;35803;53.096;5.844;2023-01-26T20:19:16;11.02;;;1.70;;
49910;SDS011;35803;53.096;5.844;2023-01-26T20:21:41;6.40;;;2.30;;
49910;SDS011;35803;53.096;5.844;2023-01-26T20:24:16;9.30;;;1.70;;
49910;SDS011;35803;53.096;5.844;2023-01-26T20:26:42;5.63;;;2.05;;
49910;SDS011;35803;53.096;5.844;2023-01-26T20:29:12;14.90;;;1.85;;
49910;SDS011;35803;53.096;5.844;2023-01-26T20:31:38;5.97;;;1.60;;
49910;SDS011;35803;53.096;5.844;2023-01-26T20:34:04;11.02;;;1.55;;
49910;SDS011;35803;53.096;5.844;2023-01-26T20:36:30;5.80;;;1.60;;
49910;SDS011;35803;53.096;5.844;2023-01-26T20:38:57;5.07;;;1.52;;
49910;SDS011;35803;53.096;5.844;2023-01-26T20:41:27;7.20;;;1.70;;
49910;SDS011;35803;53.096;5.844;2023-01-26T20:43:54;3.40;;;1.58;;
49910;SDS011;35803;53.096;5.844;2023-01-26T20:46:20;9.45;;;1.73;;
49910;SDS011;35803;53.096;5.844;2023-01-26T20:48:46;10.07;;;1.85;;
49910;SDS011;35803;53.096;5.844;2023-01-26T20:51:13;6.03;;;1.50;;
49910;SDS011;35803;53.096;5.844;2023-01-26T20:53:40;9.77;;;1.33;;
49910;SDS011;35803;53.096;5.844;2023-01-26T20:56:06;4.20;;;1.25;;
49910;SDS011;35803;53.096;5.844;2023-01-26T20:58:34;10.45;;;1.20;;
49910;SDS011;35803;53.096;5.844;2023-01-26T21:01:06;10.02;;;1.83;;
49910;SDS011;35803;53.096;5.844;2023-01-26T21:03:34;8.05;;;1.77;;
49910;SDS011;35803;53.096;5.844;2023-01-26T21:06:00;4.15;;;1.30;;
49910;SDS011;35803;53.096;5.844;2023-01-26T21:08:26;7.38;;;1.50;;
49910;SDS011;35803;53.096;5.844;2023-01-26T21:10:52;8.38;;;1.73;;
49910;SDS011;35803;53.096;5.844;2023-01-26T21:13:17;10.82;;;2.00;;
49910;SDS011;35803;53.096;5.844;2023-01-26T21:15:43;4.35;;;1.30;;
49910;SDS011;35803;53.096;5.844;2023-01-26T21:18:08;6.25;;;1.25;;
49910;SDS011;35803;53.096;5.844;2023-01-26T21:20:34;7.80;;;1.50;;
49910;SDS011;35803;53.096;5.844;2023-01-26T21:22:59;5.75;;;1.15;;
49910;SDS011;35803;53.096;5.844;2023-01-26T21:25:25;5.35;;;1.48;;
49910;SDS011;35803;53.096;5.844;2023-01-26T21:27:51;3.92;;;1.30;;
49910;SDS011;35803;53.096;5.844;2023-01-26T21:30:16;7.13;;;1.42;;
49910;SDS011;35803;53.096;5.844;2023-01-26T21:32:42;7.53;;;2.50;;
49910;SDS011;35803;53.096;5.844;2023-01-26T21:35:07;6.22;;;1.77;;
49910;SDS011;35803;53.096;5.844;2023-01-26T21:37:33;6.82;;;1.73;;
49910;SDS011;35803;53.096;5.844;2023-01-26T21:39:59;5.35;;;1.67;;
49910;SDS011;35803;53.096;5.844;2023-01-26T21:42:24;9.23;;;1.90;;
49910;SDS011;35803;53.096;5.844;2023-01-26T21:44:50;5.63;;;1.98;;
49910;SDS011;35803;53.096;5.844;2023-01-26T21:47:34;4.28;;;1.85;;
49910;SDS011;35803;53.096;5.844;2023-01-26T21:49:59;5.97;;;1.23;;
49910;SDS011;35803;53.096;5.844;2023-01-26T21:52:25;5.82;;;1.50;;
49910;SDS011;35803;53.096;5.844;2023-01-26T21:55:09;3.75;;;1.52;;
49910;SDS011;35803;53.096;5.844;2023-01-26T21:57:34;6.25;;;1.55;;
49910;SDS011;35803;53.096;5.844;2023-01-26T22:00:18;3.78;;;1.40;;
49910;SDS011;35803;53.096;5.844;2023-01-26T22:02:44;4.63;;;1.50;;
49910;SDS011;35803;53.096;5.844;2023-01-26T22:05:10;5.28;;;1.55;;
49910;SDS011;35803;53.096;5.844;2023-01-26T22:07:36;4.13;;;1.38;;
49910;SDS011;35803;53.096;5.844;2023-01-26T22:10:02;4.50;;;1.40;;
49910;SDS011;35803;53.096;5.844;2023-01-26T22:12:30;4.60;;;1.45;;
49910;SDS011;35803;53.096;5.844;2023-01-26T22:14:56;2.35;;;1.50;;
49910;SDS011;35803;53.096;5.844;2023-01-26T22:17:25;5.53;;;1.50;;
49910;SDS011;35803;53.096;5.844;2023-01-26T22:19:50;5.05;;;1.80;;
49910;SDS011;35803;53.096;5.844;2023-01-26T22:22:16;6.03;;;2.03;;
49910;SDS011;35803;53.096;5.844;2023-01-26T22:24:41;5.05;;;1.60;;
49910;SDS011;35803;53.096;5.844;2023-01-26T22:27:07;5.97;;;2.15;;
49910;SDS011;35803;53.096;5.844;2023-01-26T22:29:33;6.70;;;1.85;;
49910;SDS011;35803;53.096;5.844;2023-01-26T22:31:58;6.93;;;2.28;;
49910;SDS011;35803;53.096;5.844;2023-01-26T22:34:25;4.05;;;1.90;;
49910;SDS011;35803;53.096;5.844;2023-01-26T22:36:50;7.15;;;2.08;;
49910;SDS011;35803;53.096;5.844;2023-01-26T22:39:16;8.75;;;2.53;;
49910;SDS011;35803;53.096;5.844;2023-01-26T22:41:41;4.07;;;1.85;;
49910;SDS011;35803;53.096;5.844;2023-01-26T22:44:07;5.90;;;2.10;;
49910;SDS011;35803;53.096;5.844;2023-01-26T22:46:33;6.22;;;2.30;;
49910;SDS011;35803;53.096;5.844;2023-01-26T22:48:59;11.43;;;2.85;;
49910;SDS011;35803;53.096;5.844;2023-01-26T22:51:28;5.38;;;2.55;;
49910;SDS011;35803;53.096;5.844;2023-01-26T22:53:55;4.88;;;2.10;;
49910;SDS011;35803;53.096;5.844;2023-01-26T22:56:22;8.40;;;2.40;;
49910;SDS011;35803;53.096;5.844;2023-01-26T22:58:55;6.28;;;2.50;;
49910;SDS011;35803;53.096;5.844;2023-01-26T23:01:22;4.03;;;2.28;;
49910;SDS011;35803;53.096;5.844;2023-01-26T23:03:51;10.65;;;2.47;;
49910;SDS011;35803;53.096;5.844;2023-01-26T23:06:18;7.47;;;2.90;;
49910;SDS011;35803;53.096;5.844;2023-01-26T23:08:44;8.85;;;2.97;;
49910;SDS011;35803;53.096;5.844;2023-01-26T23:11:18;4.65;;;2.88;;
49910;SDS011;35803;53.096;5.844;2023-01-26T23:13:48;5.65;;;2.78;;
49910;SDS011;35803;53.096;5.844;2023-01-26T23:16:15;10.10;;;3.38;;
49910;SDS011;35803;53.096;5.844;2023-01-26T23:18:41;6.53;;;3.70;;
49910;SDS011;35803;53.096;5.844;2023-01-26T23:21:07;8.15;;;3.42;;
49910;SDS011;35803;53.096;5.844;2023-01-26T23:23:33;6.95;;;3.40;;
49910;SDS011;35803;53.096;5.844;2023-01-26T23:26:02;7.43;;;3.40;;
49910;SDS011;35803;53.096;5.844;2023-01-26T23:28:31;4.47;;;3.20;;
49910;SDS011;35803;53.096;5.844;2023-01-26T23:30:59;6.18;;;3.33;;
49910;SDS011;35803;53.096;5.844;2023-01-26T23:33:26;7.15;;;3.50;;
49910;SDS011;35803;53.096;5.844;2023-01-26T23:35:53;7.93;;;3.63;;
49910;SDS011;35803;53.096;5.844;2023-01-26T23:38:19;7.70;;;4.40;;
49910;SDS011;35803;53.096;5.844;2023-01-26T23:40:46;5.38;;;3.08;;
49910;SDS011;35803;53.096;5.844;2023-01-26T23:43:12;8.73;;;3.65;;
49910;SDS011;35803;53.096;5.844;2023-01-26T23:45:38;9.85;;;4.63;;
49910;SDS011;35803;53.096;5.844;2023-01-26T23:48:04;9.93;;;4.40;;
49910;SDS011;35803;53.096;5.844;2023-01-26T23:50:29;9.27;;;4.47;;
49910;SDS011;35803;53.096;5.844;2023-01-26T23:52:57;10.18;;;4.13;;
49910;SDS011;35803;53.096;5.844;2023-01-26T23:55:22;7.63;;;4.50;;
49910;SDS011;35803;53.096;5.844;2023-01-26T23:57:48;11.90;;;4.30;;
